createdAt,value
2022-10-11T00:02:12.693Z,87.69
2022-10-11T00:04:39.226Z,87.67
2022-10-11T00:07:05.862Z,87.92
2022-10-11T00:09:33.847Z,88.13
2022-10-11T00:12:00.540Z,88.67
2022-10-11T00:14:28.218Z,87.92
2022-10-11T00:16:55.204Z,89.09
2022-10-11T00:19:21.984Z,89.81
2022-10-11T00:21:48.566Z,89.93
2022-10-11T00:24:15.129Z,90.14
2022-10-11T00:26:46.544Z,91.02
2022-10-11T00:29:14.099Z,91.72
2022-10-11T00:31:40.758Z,92.65
2022-10-11T00:34:07.915Z,93.15
2022-10-11T00:36:34.557Z,93.33
2022-10-11T00:39:01.045Z,93.78
2022-10-11T00:41:27.609Z,94.15
2022-10-11T00:44:16.549Z,94.92
2022-10-11T00:46:51.788Z,95.32
2022-10-11T00:49:28.644Z,95.04
2022-10-11T00:51:58.319Z,95.37
2022-10-11T00:54:28.732Z,95.17
2022-10-11T00:57:00.193Z,95.75
2022-10-11T00:59:31.082Z,95.78
2022-10-11T01:01:57.697Z,95.87
2022-10-11T01:04:24.339Z,96.02
2022-10-11T01:06:51.617Z,96.29
2022-10-11T01:09:19.796Z,96.28
2022-10-11T01:11:48.172Z,96.84
2022-10-11T01:14:38.438Z,96.57
2022-10-11T01:17:17.077Z,97.27
2022-10-11T01:20:06.397Z,97.84
2022-10-11T01:22:55.912Z,97.86
2022-10-11T01:25:32.613Z,97.86
2022-10-11T01:28:14.834Z,97.64
2022-10-11T01:30:43.231Z,97.10
2022-10-11T01:33:20.865Z,97.86
2022-10-11T01:35:57.139Z,97.89
2022-10-11T01:38:30.248Z,98.14
2022-10-11T01:41:03.630Z,97.81
2022-10-11T01:43:31.116Z,98.96
2022-10-11T01:46:00.592Z,99.08
2022-10-11T01:48:27.379Z,99.88
2022-10-11T01:50:56.359Z,100.00
2022-10-11T01:53:47.377Z,100.00
2022-10-11T01:56:25.406Z,100.00
2022-10-11T01:59:08.618Z,100.00
2022-10-11T02:01:49.963Z,100.00
2022-10-11T02:04:23.285Z,100.00
2022-10-11T02:06:58.148Z,100.00
2022-10-11T02:09:33.826Z,100.00
2022-10-11T02:12:05.254Z,100.00
2022-10-11T02:14:36.465Z,100.00
2022-10-11T02:17:08.673Z,100.00
2022-10-11T02:19:39.338Z,100.00
2022-10-11T02:22:11.399Z,100.00
2022-10-11T02:24:41.292Z,100.00
2022-10-11T02:27:10.808Z,100.00
2022-10-11T02:29:41.742Z,100.00
2022-10-11T02:32:10.683Z,100.00
2022-10-11T02:34:43.201Z,100.00
2022-10-11T02:37:15.323Z,100.00
2022-10-11T02:39:47.147Z,100.00
2022-10-11T02:42:18.163Z,100.00
2022-10-11T02:44:52.061Z,100.00
2022-10-11T02:47:19.985Z,100.00
2022-10-11T02:49:46.519Z,100.00
2022-10-11T02:52:14.628Z,100.00
2022-10-11T02:54:41.155Z,100.00
2022-10-11T02:57:07.785Z,100.00
2022-10-11T02:59:34.334Z,100.00
2022-10-11T03:02:01.013Z,100.00
2022-10-11T03:04:28.942Z,100.00
2022-10-11T03:06:55.484Z,100.00
2022-10-11T03:09:22.030Z,100.00
2022-10-11T03:11:48.519Z,100.00
2022-10-11T03:14:15.181Z,100.00
2022-10-11T03:16:41.700Z,100.00
2022-10-11T03:19:08.335Z,100.00
2022-10-11T03:21:36.191Z,100.00
2022-10-11T03:24:03.060Z,100.00
2022-10-11T03:26:29.649Z,100.00
2022-10-11T03:28:56.220Z,100.00
2022-10-11T03:31:23.037Z,100.00
2022-10-11T03:33:49.820Z,100.00
2022-10-11T03:36:17.151Z,100.00
2022-10-11T03:38:45.115Z,100.00
2022-10-11T03:41:11.633Z,100.00
2022-10-11T03:43:38.320Z,100.00
2022-10-11T03:46:05.097Z,100.00
2022-10-11T03:48:31.872Z,100.00
2022-10-11T03:50:58.580Z,100.00
2022-10-11T03:53:25.124Z,100.00
2022-10-11T03:55:53.883Z,100.00
2022-10-11T03:58:21.039Z,100.00
2022-10-11T04:00:47.914Z,100.00
2022-10-11T04:03:14.466Z,100.00
2022-10-11T04:05:41.066Z,100.00
2022-10-11T04:08:11.922Z,100.00
2022-10-11T04:10:39.457Z,100.00
2022-10-11T04:13:07.347Z,100.00
2022-10-11T04:15:33.888Z,100.00
2022-10-11T04:18:00.417Z,100.00
2022-10-11T04:20:26.967Z,100.00
2022-10-11T04:22:53.465Z,100.00
2022-10-11T04:25:20.126Z,100.00
2022-10-11T04:27:46.792Z,100.00
2022-10-11T04:30:15.125Z,100.00
2022-10-11T04:32:41.843Z,100.00
2022-10-11T04:35:08.978Z,100.00
2022-10-11T04:37:35.651Z,100.00
2022-10-11T04:40:02.436Z,100.00
2022-10-11T04:42:28.922Z,100.00
2022-10-11T04:44:55.598Z,100.00
2022-10-11T04:47:23.529Z,100.00
2022-10-11T04:49:50.066Z,100.00
2022-10-11T04:52:16.714Z,100.00
2022-10-11T04:54:43.229Z,100.00
2022-10-11T04:57:09.861Z,100.00
2022-10-11T04:59:36.417Z,100.00
2022-10-11T05:02:03.132Z,100.00
2022-10-11T05:04:31.111Z,100.00
2022-10-11T05:06:57.781Z,100.00
2022-10-11T05:09:24.300Z,100.00
2022-10-11T05:11:50.846Z,100.00
2022-10-11T05:14:17.502Z,100.00
2022-10-11T05:16:44.032Z,100.00
2022-10-11T05:19:10.597Z,100.00
2022-10-11T05:21:38.609Z,100.00
2022-10-11T05:24:06.189Z,100.00
2022-10-11T05:26:32.681Z,100.00
2022-10-11T05:28:59.421Z,100.00
2022-10-11T05:31:26.007Z,100.00
2022-10-11T05:33:52.528Z,100.00
2022-10-11T05:36:19.379Z,100.00
2022-10-11T05:38:47.241Z,100.00
2022-10-11T05:41:15.225Z,100.00
2022-10-11T05:43:41.839Z,100.00
2022-10-11T05:46:08.712Z,100.00
2022-10-11T05:48:35.578Z,100.00
2022-10-11T05:51:04.511Z,100.00
2022-10-11T05:53:31.286Z,100.00
2022-10-11T05:55:59.478Z,100.00
2022-10-11T05:58:26.504Z,100.00
2022-10-11T06:00:53.043Z,100.00
2022-10-11T06:03:19.782Z,100.00
2022-10-11T06:05:46.385Z,100.00
2022-10-11T06:08:13.006Z,100.00
2022-10-11T06:10:40.060Z,100.00
2022-10-11T06:13:09.416Z,100.00
2022-10-11T06:15:38.686Z,100.00
2022-10-11T06:18:05.280Z,100.00
2022-10-11T06:20:31.851Z,100.00
2022-10-11T06:22:58.559Z,100.00
2022-10-11T06:25:25.096Z,100.00
2022-10-11T06:27:51.603Z,100.00
2022-10-11T06:30:19.492Z,100.00
2022-10-11T06:32:46.119Z,100.00
2022-10-11T06:35:12.780Z,100.00
2022-10-11T06:37:39.296Z,100.00
2022-10-11T06:40:06.968Z,100.00
2022-10-11T06:42:33.593Z,100.00
2022-10-11T06:45:00.101Z,100.00
2022-10-11T06:47:28.016Z,100.00
2022-10-11T06:49:54.527Z,100.00
2022-10-11T06:52:21.049Z,100.00
2022-10-11T06:54:47.540Z,100.00
2022-10-11T06:57:14.043Z,100.00
2022-10-11T06:59:40.663Z,100.00
2022-10-11T07:02:07.183Z,99.78
2022-10-11T07:04:35.204Z,99.44
2022-10-11T07:07:01.729Z,99.75
2022-10-11T07:09:28.268Z,99.43
2022-10-11T07:11:54.823Z,99.01
2022-10-11T07:14:21.378Z,99.21
2022-10-11T07:16:48.247Z,99.33
2022-10-11T07:19:14.777Z,99.46
2022-10-11T07:21:42.751Z,99.05
2022-10-11T07:24:09.427Z,98.73
2022-10-11T07:26:38.543Z,98.63
2022-10-11T07:29:06.203Z,97.97
2022-10-11T07:31:32.776Z,97.63
2022-10-11T07:33:59.284Z,95.26
2022-10-11T07:36:25.861Z,95.41
2022-10-11T07:38:53.770Z,93.81
2022-10-11T07:41:20.928Z,93.32
2022-10-11T07:43:47.736Z,94.07
2022-10-11T07:46:14.467Z,95.51
2022-10-11T07:48:41.486Z,93.81
2022-10-11T07:51:09.922Z,93.71
2022-10-11T07:53:41.346Z,93.71
2022-10-11T07:56:11.447Z,93.26
2022-10-11T07:58:38.041Z,91.56
2022-10-11T08:01:05.739Z,91.87
2022-10-11T08:03:32.763Z,94.72
2022-10-11T08:06:00.682Z,93.78
2022-10-11T08:08:27.465Z,93.58
2022-10-11T08:10:54.132Z,92.24
2022-10-11T08:13:21.992Z,93.69
2022-10-11T08:15:48.562Z,94.46
2022-10-11T08:18:15.095Z,94.26
2022-10-11T08:20:41.661Z,94.04
2022-10-11T08:23:08.357Z,94.77
2022-10-11T08:25:37.502Z,94.74
2022-10-11T08:28:04.607Z,95.64
2022-10-11T08:30:32.624Z,94.90
2022-10-11T08:32:59.274Z,94.14
2022-10-11T08:35:25.920Z,94.20
2022-10-11T08:37:52.476Z,93.82
2022-10-11T08:40:21.478Z,94.60
2022-10-11T08:42:57.237Z,94.08
2022-10-11T08:45:29.916Z,93.15
2022-10-11T08:48:06.552Z,92.91
2022-10-11T08:50:33.387Z,91.95
2022-10-11T08:53:05.897Z,91.64
2022-10-11T08:55:39.534Z,91.34
2022-10-11T08:58:06.434Z,90.33
2022-10-11T09:00:35.908Z,90.66
2022-10-11T09:03:14.975Z,90.54
2022-10-11T09:05:57.233Z,90.39
2022-10-11T09:08:33.333Z,90.20
2022-10-11T09:11:09.875Z,89.98
2022-10-11T09:13:54.664Z,89.50
2022-10-11T09:16:30.864Z,88.38
2022-10-11T09:19:21.094Z,88.83
2022-10-11T09:21:56.422Z,88.87
2022-10-11T09:24:37.001Z,88.15
2022-10-11T09:27:12.802Z,87.47
2022-10-11T09:29:50.936Z,86.49
2022-10-11T09:32:20.649Z,86.48
2022-10-11T09:34:55.984Z,87.53
2022-10-11T09:37:29.527Z,87.01
2022-10-11T09:40:01.152Z,86.96
2022-10-11T09:42:27.661Z,86.53
2022-10-11T09:44:54.179Z,87.07
2022-10-11T09:47:23.965Z,84.83
2022-10-11T09:49:57.247Z,84.63
2022-10-11T09:52:24.487Z,83.19
2022-10-11T09:54:55.005Z,81.46
2022-10-11T09:57:24.429Z,81.00
2022-10-11T10:00:04.303Z,80.38
2022-10-11T10:02:38.391Z,79.99
2022-10-11T10:05:17.105Z,79.06
2022-10-11T10:08:04.307Z,77.90
2022-10-11T10:10:35.385Z,75.94
2022-10-11T10:13:04.645Z,75.96
2022-10-11T10:15:33.575Z,76.58
2022-10-11T10:18:00.431Z,74.43
2022-10-11T10:20:30.176Z,75.71
2022-10-11T10:22:57.402Z,75.75
2022-10-11T10:25:32.782Z,72.56
2022-10-11T10:28:01.815Z,72.57
2022-10-11T10:30:34.492Z,70.70
2022-10-11T10:33:05.680Z,70.69
2022-10-11T10:35:38.820Z,72.53
2022-10-11T10:38:15.395Z,66.99
2022-10-11T10:40:47.175Z,65.42
2022-10-11T10:43:16.619Z,64.03
2022-10-11T10:46:16.802Z,62.61
2022-10-11T10:51:48.335Z,62.89
2022-10-11T10:54:22.103Z,62.03
2022-10-11T10:56:54.663Z,60.11
2022-10-11T10:59:46.826Z,61.17
2022-10-11T11:02:39.726Z,61.39
2022-10-11T11:05:16.720Z,60.68
2022-10-11T11:07:50.554Z,57.11
2022-10-11T11:10:20.843Z,57.58
2022-10-11T11:12:54.034Z,58.61
2022-10-11T11:15:32.251Z,59.48
2022-10-11T11:18:16.739Z,57.12
2022-10-11T11:20:54.695Z,56.67
2022-10-11T11:23:29.260Z,55.57
2022-10-11T11:26:04.687Z,55.54
2022-10-11T11:28:48.870Z,56.07
2022-10-11T11:31:25.404Z,57.37
2022-10-11T11:34:02.663Z,56.08
2022-10-11T11:36:38.833Z,55.84
2022-10-11T11:39:13.552Z,55.35
2022-10-11T11:41:44.720Z,55.54
2022-10-11T11:44:17.669Z,55.86
2022-10-11T11:46:52.418Z,54.47
2022-10-11T11:49:24.456Z,54.88
2022-10-11T11:51:51.504Z,50.43
2022-10-11T11:54:26.974Z,52.83
2022-10-11T11:57:00.344Z,51.57
2022-10-11T11:59:36.804Z,51.75
2022-10-11T12:02:24.788Z,52.13
2022-10-11T12:04:52.133Z,50.97
2022-10-11T12:07:21.909Z,50.38
2022-10-11T12:09:52.880Z,49.00
2022-10-11T12:12:30.175Z,47.58
2022-10-11T12:15:15.593Z,48.69
2022-10-11T12:18:01.651Z,50.64
2022-10-11T12:20:30.358Z,50.97
2022-10-11T12:22:58.805Z,47.26
2022-10-11T12:25:43.664Z,47.36
2022-10-11T12:29:00.288Z,46.63
2022-10-11T12:31:29.472Z,46.22
2022-10-11T12:34:33.240Z,47.58
2022-10-11T12:37:04.529Z,44.70
2022-10-11T12:39:49.062Z,43.68
2022-10-11T12:42:26.503Z,45.25
2022-10-11T12:45:28.728Z,43.62
2022-10-11T12:48:15.902Z,42.19
2022-10-11T12:50:52.508Z,44.32
2022-10-11T12:53:33.015Z,43.16
2022-10-11T12:56:05.331Z,44.43
2022-10-11T12:58:35.820Z,43.09
2022-10-11T13:01:19.095Z,42.04
2022-10-11T13:03:50.722Z,40.24
2022-10-11T13:06:20.454Z,42.33
2022-10-11T13:08:52.447Z,43.74
2022-10-11T13:11:22.508Z,44.33
2022-10-11T13:13:53.929Z,44.54
2022-10-11T13:16:23.409Z,43.77
2022-10-11T13:18:56.021Z,44.91
2022-10-11T13:21:29.748Z,41.79
2022-10-11T13:23:58.937Z,41.88
2022-10-11T13:26:26.439Z,40.76
2022-10-11T13:28:54.552Z,40.71
2022-10-11T13:31:23.051Z,43.52
2022-10-11T13:33:53.493Z,42.86
2022-10-11T13:36:20.083Z,42.10
2022-10-11T13:38:54.512Z,41.63
2022-10-11T13:41:21.931Z,41.97
2022-10-11T13:43:49.292Z,40.30
2022-10-11T13:46:21.220Z,43.27
2022-10-11T13:49:00.891Z,43.83
2022-10-11T13:51:33.591Z,43.19
2022-10-11T13:54:02.491Z,43.95
2022-10-11T13:56:32.309Z,44.24
2022-10-11T13:59:00.279Z,42.12
2022-10-11T14:01:36.355Z,42.30
2022-10-11T14:04:05.410Z,42.25
2022-10-11T14:06:52.686Z,41.45
2022-10-11T14:09:21.539Z,41.48
2022-10-11T14:11:48.375Z,42.25
2022-10-11T14:14:40.783Z,41.03
2022-10-11T14:17:16.231Z,42.62
2022-10-11T14:19:43.966Z,41.32
2022-10-11T14:22:13.871Z,42.54
2022-10-11T14:24:40.419Z,43.37
2022-10-11T14:27:16.466Z,43.07
2022-10-11T14:29:45.687Z,43.81
2022-10-11T14:32:30.098Z,44.56
2022-10-11T14:34:57.023Z,42.09
2022-10-11T14:37:23.840Z,45.67
2022-10-11T14:39:50.520Z,45.53
2022-10-11T14:42:17.494Z,45.30
2022-10-11T14:44:44.189Z,45.02
2022-10-11T14:47:15.217Z,42.56
2022-10-11T14:49:44.180Z,44.66
2022-10-11T14:52:12.917Z,43.88
2022-10-11T14:54:40.008Z,44.76
2022-10-11T14:57:06.529Z,41.97
2022-10-11T14:59:34.717Z,42.52
2022-10-11T15:02:01.797Z,43.32
2022-10-11T15:04:28.562Z,44.73
2022-10-11T15:06:57.371Z,42.42
2022-10-11T15:09:24.321Z,42.26
2022-10-11T15:11:52.765Z,43.25
2022-10-11T15:14:19.404Z,44.76
2022-10-11T15:16:46.012Z,43.38
2022-10-11T15:19:15.032Z,44.53
2022-10-11T15:21:41.600Z,42.96
2022-10-11T15:24:09.540Z,45.24
2022-10-11T15:26:36.044Z,45.79
2022-10-11T15:29:02.803Z,45.01
2022-10-11T15:31:29.349Z,47.37
2022-10-11T15:33:56.008Z,48.73
2022-10-11T15:36:22.684Z,46.50
2022-10-11T15:38:49.612Z,46.50
2022-10-11T15:41:19.457Z,47.09
2022-10-11T15:43:47.575Z,51.12
2022-10-11T15:46:16.955Z,49.83
2022-10-11T15:48:43.852Z,51.77
2022-10-11T15:51:10.448Z,51.27
2022-10-11T15:53:37.036Z,50.60
2022-10-11T15:56:06.933Z,51.68
2022-10-11T15:58:37.093Z,53.31
2022-10-11T16:01:05.863Z,55.08
2022-10-11T16:03:33.554Z,53.09
2022-10-11T16:06:05.187Z,51.40
2022-10-11T16:08:33.000Z,52.83
2022-10-11T16:10:59.991Z,56.01
2022-10-11T16:13:26.507Z,53.23
2022-10-11T16:15:54.555Z,54.77
2022-10-11T16:18:21.243Z,56.07
2022-10-11T16:20:49.445Z,59.34
2022-10-11T16:23:15.974Z,59.60
2022-10-11T16:25:42.575Z,60.67
2022-10-11T16:28:10.255Z,62.98
2022-10-11T16:30:39.611Z,62.89
2022-10-11T16:33:07.485Z,64.05
2022-10-11T16:35:34.019Z,63.64
2022-10-11T16:38:00.984Z,64.02
2022-10-11T16:40:27.672Z,65.20
2022-10-11T16:42:54.213Z,66.00
2022-10-11T16:45:20.727Z,66.19
2022-10-11T16:47:47.270Z,67.61
2022-10-11T16:50:15.117Z,68.25
2022-10-11T16:52:41.614Z,69.16
2022-10-11T16:55:08.936Z,70.06
2022-10-11T16:57:35.436Z,70.52
2022-10-11T17:00:02.082Z,70.74
2022-10-11T17:02:32.255Z,71.95
2022-10-11T17:04:59.399Z,71.84
2022-10-11T17:07:27.685Z,72.04
2022-10-11T17:09:54.585Z,73.37
2022-10-11T17:12:22.916Z,73.52
2022-10-11T17:14:49.960Z,75.07
2022-10-11T17:17:18.129Z,75.85
2022-10-11T17:19:45.648Z,76.07
2022-10-11T17:22:13.912Z,76.19
2022-10-11T17:24:42.180Z,77.38
2022-10-11T17:27:09.078Z,78.01
2022-10-11T17:29:35.904Z,78.59
2022-10-11T17:32:02.799Z,78.91
2022-10-11T17:34:29.540Z,79.68
2022-10-11T17:36:56.155Z,79.95
2022-10-11T17:39:23.938Z,80.48
2022-10-11T17:41:52.116Z,80.67
2022-10-11T17:44:18.983Z,81.25
2022-10-11T17:46:46.425Z,81.25
2022-10-11T17:49:13.532Z,81.70
2022-10-11T17:51:40.556Z,82.31
2022-10-11T17:54:07.928Z,82.79
2022-10-11T17:56:37.870Z,82.75
2022-10-11T17:59:06.852Z,82.94
2022-10-11T18:01:33.657Z,83.36
2022-10-11T18:04:02.234Z,83.33
2022-10-11T18:06:30.647Z,83.59
2022-10-11T18:09:00.829Z,83.59
2022-10-11T18:11:27.427Z,83.80
2022-10-11T18:13:54.192Z,84.05
2022-10-11T18:16:23.981Z,84.73
2022-10-11T18:18:50.616Z,84.80
2022-10-11T18:21:17.499Z,85.51
2022-10-11T18:23:44.299Z,85.59
2022-10-11T18:26:13.167Z,85.67
2022-10-11T18:28:40.294Z,86.10
2022-10-11T18:31:12.643Z,86.40
2022-10-11T18:33:42.579Z,86.31
2022-10-11T18:36:09.922Z,86.75
2022-10-11T18:38:36.666Z,86.51
2022-10-11T18:41:05.279Z,86.90
2022-10-11T18:43:32.332Z,87.12
2022-10-11T18:46:03.607Z,87.57
2022-10-11T18:48:30.190Z,88.13
2022-10-11T18:51:03.985Z,88.17
2022-10-11T18:53:30.917Z,87.91
2022-10-11T18:55:58.593Z,88.13
2022-10-11T18:58:25.138Z,88.70
2022-10-11T19:00:51.665Z,88.97
2022-10-11T19:03:18.221Z,89.89
2022-10-11T19:05:44.780Z,89.90
2022-10-11T19:08:12.750Z,90.32
2022-10-11T19:10:39.300Z,90.79
2022-10-11T19:13:05.967Z,90.67
2022-10-11T19:15:34.920Z,91.06
2022-10-11T19:18:01.455Z,90.68
2022-10-11T19:20:28.028Z,91.16
2022-10-11T19:22:54.557Z,91.84
2022-10-11T19:25:22.483Z,92.26
2022-10-11T19:27:48.998Z,91.93
2022-10-11T19:30:15.741Z,91.99
2022-10-11T19:32:42.275Z,92.20
2022-10-11T19:35:09.711Z,91.86
2022-10-11T19:37:36.418Z,92.48
2022-10-11T19:40:03.135Z,92.43
2022-10-11T19:42:31.276Z,92.23
2022-10-11T19:44:58.087Z,93.01
2022-10-11T19:47:24.664Z,92.93
2022-10-11T19:49:51.214Z,93.09
2022-10-11T19:52:17.863Z,93.32
2022-10-11T19:54:44.458Z,93.35
2022-10-11T19:57:11.096Z,93.44
2022-10-11T19:59:38.930Z,93.84
2022-10-11T20:02:05.532Z,93.23
2022-10-11T20:07:18.488Z,94.64
2022-10-11T20:09:45.031Z,94.38
2022-10-11T20:12:11.671Z,94.17
2022-10-11T20:14:39.535Z,94.40
2022-10-11T20:17:06.081Z,94.56
2022-10-11T20:19:32.579Z,94.00
2022-10-11T20:22:00.009Z,96.02
2022-10-11T20:24:26.557Z,95.80
2022-10-11T20:26:53.096Z,96.24
2022-10-11T20:29:19.691Z,96.26
2022-10-11T20:31:47.575Z,96.08
2022-10-11T20:34:14.309Z,96.34
2022-10-11T20:36:40.926Z,96.23
2022-10-11T20:39:08.210Z,96.51
2022-10-11T20:41:36.679Z,96.00
2022-10-11T20:44:04.391Z,96.30
2022-10-11T20:46:32.805Z,95.86
2022-10-11T20:49:02.622Z,95.92
2022-10-11T20:51:30.293Z,95.16
2022-10-11T20:53:56.818Z,95.12
2022-10-11T20:56:23.382Z,95.28
2022-10-11T20:58:50.772Z,95.72
2022-10-11T21:01:19.438Z,96.26
2022-10-11T21:03:46.324Z,97.09
2022-10-11T21:06:14.473Z,96.57
2022-10-11T21:08:41.003Z,97.06
2022-10-11T21:11:08.911Z,97.32
2022-10-11T21:13:35.711Z,97.35
2022-10-11T21:16:05.256Z,97.15
2022-10-11T21:18:31.917Z,96.95
2022-10-11T21:21:04.983Z,96.10
2022-10-11T21:23:33.004Z,96.86
2022-10-11T21:26:00.831Z,96.85
2022-10-11T21:28:27.353Z,96.79
2022-10-11T21:30:53.893Z,96.92
2022-10-11T21:33:20.390Z,97.27
2022-10-11T21:35:46.914Z,96.96
2022-10-11T21:38:13.427Z,96.83
2022-10-11T21:40:41.327Z,97.92
2022-10-11T21:43:07.843Z,97.75
2022-10-11T21:45:36.623Z,98.16
2022-10-11T21:48:03.211Z,98.08
2022-10-11T21:50:29.713Z,98.42
2022-10-11T21:52:56.377Z,98.63
2022-10-11T21:55:22.856Z,97.67
2022-10-11T21:57:50.727Z,98.25
2022-10-11T22:00:17.287Z,97.90
2022-10-11T22:02:43.900Z,97.61
2022-10-11T22:05:12.443Z,97.98
2022-10-11T22:07:41.306Z,98.54
2022-10-11T22:10:09.328Z,98.80
2022-10-11T22:12:38.708Z,98.61
2022-10-11T22:15:11.174Z,98.59
2022-10-11T22:17:37.856Z,98.11
2022-10-11T22:20:04.895Z,99.33
2022-10-11T22:22:31.485Z,99.16
2022-10-11T22:24:57.989Z,99.51
2022-10-11T22:27:24.637Z,99.59
2022-10-11T22:29:51.157Z,99.77
2022-10-11T22:32:19.036Z,99.74
2022-10-11T22:34:45.532Z,100.00
2022-10-11T22:37:12.122Z,99.51
2022-10-11T22:39:38.638Z,99.13
2022-10-11T22:42:05.353Z,99.12
2022-10-11T22:44:31.867Z,100.00
2022-10-11T22:46:58.363Z,99.50
2022-10-11T22:49:26.210Z,99.10
2022-10-11T22:51:52.677Z,99.68
2022-10-11T22:54:19.285Z,99.60
2022-10-11T22:56:45.765Z,100.00
2022-10-11T22:59:12.272Z,100.00
2022-10-11T23:01:38.758Z,100.00
2022-10-11T23:04:05.368Z,100.00
2022-10-11T23:06:33.245Z,100.00
2022-10-11T23:08:59.762Z,100.00
2022-10-11T23:11:26.360Z,100.00
2022-10-11T23:13:53.036Z,100.00
2022-10-11T23:16:19.872Z,100.00
2022-10-11T23:18:46.449Z,99.77
2022-10-11T23:21:12.941Z,100.00
2022-10-11T23:23:40.785Z,100.00
2022-10-11T23:26:10.141Z,100.00
2022-10-11T23:28:37.319Z,100.00
2022-10-11T23:31:08.464Z,100.00
2022-10-11T23:33:35.489Z,100.00
2022-10-11T23:36:02.025Z,100.00
2022-10-11T23:38:28.743Z,100.00
2022-10-11T23:40:56.641Z,100.00
2022-10-11T23:43:23.631Z,100.00
2022-10-11T23:45:50.195Z,100.00
2022-10-11T23:48:16.717Z,100.00
2022-10-11T23:50:43.243Z,100.00
2022-10-11T23:53:10.695Z,100.00
2022-10-11T23:55:37.208Z,100.00
2022-10-11T23:58:05.215Z,100.00
